• Join FlightAware (Why Join?)
  • Login
  • US Flag 
04:56AM EDT


 

Airport Tracker/Info


-or-


 

Live Flight TrackerFlight Track Log ✈ UAL252 ✈ 22-Apr-2013 ✈ KSNA - KDEN

Flight Track Log - Related Links

Times and Time Zones

All times are in EDT time to prevent confusion due to time zone crossing. See the UAL252 flight status page for this flight to view local times or setup timezone preferences in your user account.

Time Position Orientation Groundspeed Altitude Reporting Facility
EDT Latitude Longitude Course Direction KTS MPH feet Rate Location/Type
07:26PM 33.6500 -117.8833 90° East 128 147 1,700  Level Southern California TRACON
07:27PM 33.6142 -117.8908 190° South 147 169 3,200 1,200 Climbing Los Angeles Center
07:28PM 33.4886 -117.6467 54° Northeast  Level FlightAware Approximate
07:28PM 33.5606 -117.8950 184° South 196 226 4,100  Level Los Angeles Center
07:29PM 33.5468 -117.5198 66° East  Level FlightAware Approximate
07:29PM 33.5325 -117.8222 115° Southeast 272 313 6,900  Level Los Angeles Center
07:30PM 33.5833 -117.3831 90° East  Level FlightAware Approximate
07:30PM 33.5475 -117.7261 79° East 292 336 10,000  Level Los Angeles Center
07:31PM 33.5834 -117.2375 90° East  Level FlightAware Approximate
07:31PM 33.5672 -117.5939 80° East 339 390 11,800  Level Los Angeles Center
07:32PM 33.5839 -117.4703 81° East 376 433 14,400 2,340 Climbing Los Angeles Center
07:33PM 33.5878 -117.3378 88° East 401 461 16,600 2,040 Climbing Los Angeles Center
07:34PM 33.5942 -117.2003 87° East 414 476 18,700 2,100 Climbing Los Angeles Center
07:35PM 33.5986 -117.0600 88° East 423 487 21,000 1,920 Climbing Los Angeles Center
07:36PM 33.6036 -116.9158 88° East 431 496 22,700 1,560 Climbing Los Angeles Center
07:37PM 33.6092 -116.7581 88° East 444 511 24,300 1,500 Climbing Los Angeles Center
07:38PM 33.6139 -116.6031 88° East 463 533 25,900 1,440 Climbing Los Angeles Center
07:39PM 33.6189 -116.4456 88° East 471 542 27,300 1,380 Climbing Los Angeles Center
07:40PM 33.6322 -116.2531 85° East 484 557 28,800 1,260 Climbing Los Angeles Center
07:41PM 33.7100 -116.1231 54° Northeast 485 558 30,000 1,200 Climbing Los Angeles Center
07:42PM 33.8014 -116.0039 47° Northeast 484 557 31,300 1,260 Climbing Los Angeles Center
07:44PM 33.9108 -115.8631 47° Northeast 481 554 32,900 1,320 Climbing Los Angeles Center
07:45PM 33.9994 -115.7422 48° Northeast 480 552 34,400 960 Climbing Los Angeles Center
07:46PM 34.0894 -115.6247 47° Northeast 479 551 35,000 240 Climbing Los Angeles Center
07:47PM 34.1967 -115.4858 47° Northeast 473 544 35,000 480 Level Los Angeles Center
07:48PM 34.2853 -115.3667 48° Northeast 475 547 36,000 960 Climbing Los Angeles Center
07:49PM 34.3733 -115.2508 47° Northeast 472 543 37,000 420 Climbing Los Angeles Center
07:50PM 34.4600 -115.1331 48° Northeast 469 540 36,900 -60 Descending Los Angeles Center
07:51PM 34.5467 -115.0158 48° Northeast 468 539 36,900  Level Los Angeles Center
07:52PM 34.6353 -114.9000 47° Northeast 468 539 37,000  Climbing Los Angeles Center
07:53PM 34.7336 -114.7653 48° Northeast 471 542 37,000  Level Los Angeles Center
07:54PM 34.8208 -114.6469 48° Northeast 471 542 37,000  Level Los Angeles Center
07:55PM 34.9094 -114.5292 47° Northeast 472 543 37,000  Level Los Angeles Center
07:56PM 34.9961 -114.4103 48° Northeast 472 543 37,000  Level Los Angeles Center
07:57PM 35.1006 -114.2683 48° Northeast 471 542 37,000  Level Los Angeles Center
07:58PM 35.1881 -114.1489 48° Northeast 472 543 37,000  Level Los Angeles Center
07:59PM 35.2756 -114.0269 49° Northeast 477 549 37,000  Level Los Angeles Center
08:00PM 35.3606 -113.9108 48° Northeast 477 549 37,000  Level Los Angeles Center
08:01PM 35.4458 -113.7939 48° Northeast 476 548 37,100  Climbing Los Angeles Center
08:02PM 35.5539 -113.6428 49° Northeast 479 551 37,000 -60 Descending Los Angeles Center
08:03PM 35.6372 -113.5214 50° Northeast 479 551 37,000  Level Los Angeles Center
08:04PM 35.7067 -113.3819 58° Northeast 478 550 37,000  Level Los Angeles Center
08:05PM 35.7764 -113.2439 58° Northeast 476 548 37,000  Level Los Angeles Center
08:06PM 35.8464 -113.1053 58° Northeast 475 547 37,000  Level Los Angeles Center
08:07PM 35.9153 -112.9661 59° Northeast 475 547 37,000  Level Los Angeles Center
08:08PM 35.9975 -112.7994 59° Northeast 474 545 37,000  Level Los Angeles Center
08:09PM 36.0656 -112.6606 59° Northeast 474 545 37,000  Level Los Angeles Center
08:11PM 36.1356 -112.5214 58° Northeast 477 549 37,000  Level Los Angeles Center
08:12PM 36.2044 -112.3806 59° Northeast 479 551 37,000  Level Los Angeles Center
08:13PM 36.2731 -112.2389 59° Northeast 480 552 37,000  Level Los Angeles Center
08:14PM 36.3558 -112.0683 59° Northeast 483 556 37,100  Climbing Los Angeles Center
08:15PM 36.4253 -111.9272 59° Northeast 482 555 37,000 -120 Descending Los Angeles Center
08:15PM 36.4783 -111.8147 60° Northeast 479 551 36,900  Descending Denver Center
08:16PM 36.5481 -111.6697 59° Northeast 485 558 37,000  Climbing Denver Center
08:17PM 36.6197 -111.5236 59° Northeast 493 567 37,000  Level Denver Center
08:18PM 36.6881 -111.3789 59° Northeast 491 565 37,000  Level Denver Center
08:20PM 36.7578 -111.2317 59° Northeast 493 567 37,000  Level Denver Center
08:21PM 36.8275 -111.0856 59° Northeast 493 567 37,000  Level Denver Center
08:22PM 36.8956 -110.9375 60° Northeast 496 571 37,000  Level Denver Center
08:23PM 36.9792 -110.7592 60° Northeast 498 573 37,000  Level Denver Center
08:24PM 37.0492 -110.6103 59° Northeast 500 575 37,000  Level Denver Center
08:25PM 37.1192 -110.4575 60° Northeast 506 582 37,000  Level Denver Center
08:26PM 37.1894 -110.3072 60° Northeast 504 580 37,000  Level Denver Center
08:27PM 37.2633 -110.1450 60° Northeast 502 578 37,000  Level Denver Center
08:28PM 37.3306 -109.9975 60° Northeast 505 581 37,000  Level Denver Center
08:29PM 37.4094 -109.8244 60° Northeast 508 585 37,000  Level Denver Center
08:30PM 37.4761 -109.6783 60° Northeast 505 581 37,000  Level Denver Center
08:31PM 37.5531 -109.5056 61° Northeast 505 581 37,000  Level Denver Center
08:32PM 37.6200 -109.3569 60° Northeast 507 583 37,000  Level Denver Center
08:33PM 37.6869 -109.2061 61° Northeast 512 589 37,100  Climbing Denver Center
08:34PM 37.7656 -109.0294 61° Northeast 514 592 37,000 -60 Descending Denver Center
08:35PM 37.8342 -108.8808 60° Northeast 511 588 37,000  Level Denver Center
08:36PM 37.9183 -108.7078 58° Northeast 515 593 37,000  Level Denver Center
08:37PM 37.9892 -108.5603 59° Northeast 514 592 37,000  Level Denver Center
08:38PM 38.0733 -108.3900 58° Northeast 510 587 37,000  Level Denver Center
08:39PM 38.1461 -108.2367 59° Northeast 512 589 37,000  Level Denver Center
08:40PM 38.2164 -108.0883 59° Northeast 512 589 37,000  Level Denver Center
08:41PM 38.2983 -107.9175 59° Northeast 510 587 37,000  Level Denver Center
08:42PM 38.3694 -107.7703 58° Northeast 510 587 37,000  Level Denver Center
08:43PM 38.4394 -107.6206 59° Northeast 513 590 37,000  Level Denver Center
08:44PM 38.5200 -107.4442 60° Northeast 516 594 37,000 -300 Level Denver Center
08:45PM 38.5869 -107.2931 60° Northeast 513 590 36,400 -780 Descending Denver Center
08:46PM 38.6597 -107.1289 60° Northeast 522 601 35,500 -780 Descending Denver Center
08:47PM 38.7319 -106.9667 60° Northeast 525 604 34,900 -1,080 Descending Denver Center
08:48PM 38.8039 -106.8031 61° Northeast 528 608 33,300 -2,520 Descending Denver Center
08:49PM 38.8883 -106.6131 60° Northeast 538 619 29,800 -2,580 Descending Denver Center
08:50PM 38.9725 -106.4342 59° Northeast 525 604 28,100 -1,500 Descending Denver Center
08:51PM 39.0378 -106.2900 60° Northeast 495 570 26,800 -1,440 Descending Denver Center
08:52PM 39.1003 -106.1522 60° Northeast 478 550 25,200 -1,920 Descending Denver Center
08:53PM 39.1744 -105.9839 60° Northeast 460 529 22,900 -2,100 Descending Denver Center
08:54PM 39.2358 -105.8453 60° Northeast 445 512 21,000 -1,860 Descending Denver Center
08:55PM 39.2953 -105.7089 61° Northeast 435 501 19,200 -1,620 Descending Denver Center
08:57PM 39.3533 -105.5772 60° Northeast 420 483 17,800 -1,140 Descending Denver Center
08:58PM 39.4003 -105.4522 64° Northeast 395 455 16,900 -960 Descending Denver Center
09:00PM 39.4083 -105.1889 88° East 348 400 14,900 -900 Descending Denver Center
09:01PM 39.4133 -105.0822 86° East 306 352 14,200 -960 Descending Denver Center
09:02PM 39.4183 -104.9722 87° East 287 330 13,000 -1,020 Descending Denver Center
09:03PM 39.4261 -104.8719 84° East 281 323 12,200 -840 Descending Denver Center
09:04PM 39.4336 -104.7800 84° East 260 299 11,300 -600 Descending Denver Center
09:05PM 39.4642 -104.6928 66° East 253 291 11,000 -180 Descending Denver Center
09:06PM 39.5228 -104.6694 17° North 219 252 11,000 -300 Level Denver Center
09:07PM 39.5753 -104.6633 North 189 217 10,500 -780 Descending Denver Center
09:08PM 39.6292 -104.6631 360° North 180 207 9,500 -1,020 Descending Denver Center